LFRO/LAI METAR and TAF weather

Enter ICAO airport designator
Station Type Date Time Source
LFRO METAR 2020/08/10 19:00 UTC NOAA

LFRO 101900Z AUTO 02005KT 350V060 9000 NSC 20/17 Q1015


Station Type Date Time Source
LFRO Decoded METAR 2020/08/10 19:00 UTC NOAA

Lannion / Servel, France (LFRO) 48-45N 003-28W
Aug 10, 2020 - 03:00 PM EDT / 2020.08.10 1900 UTC
Wind: from the NNE (020 degrees) at 6 MPH (5 KT) (direction variable):0
Visibility: 5 mile(s):0
Temperature: 68 F (20 C)
Dew Point: 62 F (17 C)
Relative Humidity: 82%
Pressure (altimeter): 29.97 in. Hg (1015 hPa)
ob: LFRO 101900Z AUTO 02005KT 350V060 9000 NSC 20/17 Q1015
cycle: 19

Station Type Date Time Source
LFRO TAF 2019/05/15 19:06 UTC NOAA

TAF LFRO 151936Z 1519/1612 CNL

Example: see airport list